Terminal Aerodrome Forecast
Issued by NWS Jackson, KY

Home | Current Version | Previous Version | Text Only | Print | Product List | Glossary On
Versions: 1 2 3 4 5 6 7 8 9 10 11 12 13 14
806
FTUS43 KJKL 221739
TAFJKL
TAF
KJKL 221739Z 2218/2318 VRB05KT P6SM -SHRA VCTS SCT025CB BKN060
     FM222200 VRB03KT P6SM VCSH BKN035
     FM230800 00000KT 4SM BR SCT005 BKN010
     FM231100 00000KT 1SM BR VCSH BKN001
     FM231400 VRB04KT P6SM BKN030=

USA.gov is the U.S. government's official web portal to all federal, state and local government web resources and services.